sensor_id;sensor_type;location;lat;lon;timestamp;P1;durP1;ratioP1;P2;durP2;ratioP2
11305;SDS011;5708;50.660;6.778;2022-11-11T00:01:24;13.25;;;5.70;;
11305;SDS011;5708;50.660;6.778;2022-11-11T00:03:43;14.88;;;7.00;;
11305;SDS011;5708;50.660;6.778;2022-11-11T00:06:11;14.40;;;7.25;;
11305;SDS011;5708;50.660;6.778;2022-11-11T00:08:38;11.77;;;6.72;;
11305;SDS011;5708;50.660;6.778;2022-11-11T00:11:07;15.23;;;7.20;;
11305;SDS011;5708;50.660;6.778;2022-11-11T00:13:34;15.65;;;6.97;;
11305;SDS011;5708;50.660;6.778;2022-11-11T00:16:02;13.40;;;6.88;;
11305;SDS011;5708;50.660;6.778;2022-11-11T00:18:29;14.02;;;6.78;;
11305;SDS011;5708;50.660;6.778;2022-11-11T00:21:13;15.30;;;6.75;;
11305;SDS011;5708;50.660;6.778;2022-11-11T00:27:07;11.73;;;6.30;;
11305;SDS011;5708;50.660;6.778;2022-11-11T00:29:33;12.05;;;6.50;;
11305;SDS011;5708;50.660;6.778;2022-11-11T00:31:58;12.80;;;6.05;;
11305;SDS011;5708;50.660;6.778;2022-11-11T00:34:42;10.73;;;6.28;;
11305;SDS011;5708;50.660;6.778;2022-11-11T00:37:28;13.07;;;6.07;;
11305;SDS011;5708;50.660;6.778;2022-11-11T00:39:53;12.75;;;6.80;;
11305;SDS011;5708;50.660;6.778;2022-11-11T00:42:18;11.43;;;6.68;;
11305;SDS011;5708;50.660;6.778;2022-11-11T00:44:43;12.18;;;5.95;;
11305;SDS011;5708;50.660;6.778;2022-11-11T00:47:09;11.20;;;5.88;;
11305;SDS011;5708;50.660;6.778;2022-11-11T00:49:53;12.23;;;6.30;;
11305;SDS011;5708;50.660;6.778;2022-11-11T00:52:45;12.68;;;6.28;;
11305;SDS011;5708;50.660;6.778;2022-11-11T00:55:10;13.90;;;7.05;;
11305;SDS011;5708;50.660;6.778;2022-11-11T00:57:36;12.93;;;6.07;;
11305;SDS011;5708;50.660;6.778;2022-11-11T01:00:02;12.00;;;6.05;;
11305;SDS011;5708;50.660;6.778;2022-11-11T01:02:27;9.85;;;5.55;;
11305;SDS011;5708;50.660;6.778;2022-11-11T01:04:53;12.30;;;6.18;;
11305;SDS011;5708;50.660;6.778;2022-11-11T01:07:18;10.02;;;5.78;;
11305;SDS011;5708;50.660;6.778;2022-11-11T01:09:43;14.45;;;5.68;;
11305;SDS011;5708;50.660;6.778;2022-11-11T01:12:08;9.88;;;5.28;;
11305;SDS011;5708;50.660;6.778;2022-11-11T01:14:34;12.05;;;5.82;;
11305;SDS011;5708;50.660;6.778;2022-11-11T01:16:59;11.60;;;5.00;;
11305;SDS011;5708;50.660;6.778;2022-11-11T01:19:24;10.52;;;5.68;;
11305;SDS011;5708;50.660;6.778;2022-11-11T01:21:50;10.63;;;5.15;;
11305;SDS011;5708;50.660;6.778;2022-11-11T01:24:15;13.80;;;5.43;;
11305;SDS011;5708;50.660;6.778;2022-11-11T01:26:40;10.75;;;4.70;;
11305;SDS011;5708;50.660;6.778;2022-11-11T01:29:05;9.93;;;4.80;;
11305;SDS011;5708;50.660;6.778;2022-11-11T01:31:31;11.10;;;4.85;;
11305;SDS011;5708;50.660;6.778;2022-11-11T01:33:56;10.90;;;4.35;;
11305;SDS011;5708;50.660;6.778;2022-11-11T01:36:22;11.73;;;5.43;;
11305;SDS011;5708;50.660;6.778;2022-11-11T01:38:50;10.05;;;4.72;;
11305;SDS011;5708;50.660;6.778;2022-11-11T01:41:18;10.25;;;4.80;;
11305;SDS011;5708;50.660;6.778;2022-11-11T01:44:02;9.63;;;4.47;;
11305;SDS011;5708;50.660;6.778;2022-11-11T01:46:53;9.70;;;4.82;;
11305;SDS011;5708;50.660;6.778;2022-11-11T01:52:02;9.45;;;4.10;;
11305;SDS011;5708;50.660;6.778;2022-11-11T01:54:36;12.50;;;4.10;;
11305;SDS011;5708;50.660;6.778;2022-11-11T01:57:19;8.80;;;4.22;;
11305;SDS011;5708;50.660;6.778;2022-11-11T01:59:48;9.32;;;4.43;;
11305;SDS011;5708;50.660;6.778;2022-11-11T02:02:16;8.38;;;3.83;;
11305;SDS011;5708;50.660;6.778;2022-11-11T02:04:45;7.68;;;3.70;;
11305;SDS011;5708;50.660;6.778;2022-11-11T02:07:29;8.20;;;3.88;;
11305;SDS011;5708;50.660;6.778;2022-11-11T02:09:55;7.38;;;3.42;;
11305;SDS011;5708;50.660;6.778;2022-11-11T02:12:21;7.13;;;3.50;;
11305;SDS011;5708;50.660;6.778;2022-11-11T02:15:05;9.75;;;3.67;;
11305;SDS011;5708;50.660;6.778;2022-11-11T02:17:31;7.63;;;3.63;;
11305;SDS011;5708;50.660;6.778;2022-11-11T02:19:58;8.35;;;3.75;;
11305;SDS011;5708;50.660;6.778;2022-11-11T02:22:37;9.57;;;3.88;;
11305;SDS011;5708;50.660;6.778;2022-11-11T02:25:06;11.73;;;3.88;;
11305;SDS011;5708;50.660;6.778;2022-11-11T02:27:33;12.77;;;4.88;;
11305;SDS011;5708;50.660;6.778;2022-11-11T02:30:03;8.40;;;4.25;;
11305;SDS011;5708;50.660;6.778;2022-11-11T02:32:29;10.38;;;4.00;;
11305;SDS011;5708;50.660;6.778;2022-11-11T02:34:54;9.02;;;4.40;;
11305;SDS011;5708;50.660;6.778;2022-11-11T02:37:21;9.45;;;4.40;;
11305;SDS011;5708;50.660;6.778;2022-11-11T02:39:48;10.27;;;4.68;;
11305;SDS011;5708;50.660;6.778;2022-11-11T02:42:15;9.25;;;4.60;;
11305;SDS011;5708;50.660;6.778;2022-11-11T02:44:42;11.32;;;4.97;;
11305;SDS011;5708;50.660;6.778;2022-11-11T02:47:07;10.02;;;5.57;;
11305;SDS011;5708;50.660;6.778;2022-11-11T02:49:33;9.57;;;4.65;;
11305;SDS011;5708;50.660;6.778;2022-11-11T02:51:58;9.95;;;4.90;;
11305;SDS011;5708;50.660;6.778;2022-11-11T02:54:23;8.40;;;4.68;;
11305;SDS011;5708;50.660;6.778;2022-11-11T02:56:48;12.38;;;4.78;;
11305;SDS011;5708;50.660;6.778;2022-11-11T02:59:35;10.95;;;5.20;;
11305;SDS011;5708;50.660;6.778;2022-11-11T03:02:02;13.35;;;6.00;;
11305;SDS011;5708;50.660;6.778;2022-11-11T03:04:27;10.63;;;5.40;;
11305;SDS011;5708;50.660;6.778;2022-11-11T03:06:53;11.48;;;5.10;;
11305;SDS011;5708;50.660;6.778;2022-11-11T03:09:18;12.57;;;5.22;;
11305;SDS011;5708;50.660;6.778;2022-11-11T03:11:43;9.70;;;5.13;;
11305;SDS011;5708;50.660;6.778;2022-11-11T03:14:09;9.85;;;5.38;;
11305;SDS011;5708;50.660;6.778;2022-11-11T03:16:34;10.02;;;5.80;;
11305;SDS011;5708;50.660;6.778;2022-11-11T03:19:18;12.93;;;5.75;;
11305;SDS011;5708;50.660;6.778;2022-11-11T03:21:43;14.32;;;5.40;;
11305;SDS011;5708;50.660;6.778;2022-11-11T03:24:09;11.60;;;5.30;;
11305;SDS011;5708;50.660;6.778;2022-11-11T03:26:34;10.70;;;5.40;;
11305;SDS011;5708;50.660;6.778;2022-11-11T03:29:00;12.00;;;5.50;;
11305;SDS011;5708;50.660;6.778;2022-11-11T03:31:25;11.85;;;5.32;;
11305;SDS011;5708;50.660;6.778;2022-11-11T03:33:51;11.00;;;5.03;;
11305;SDS011;5708;50.660;6.778;2022-11-11T03:36:16;11.30;;;5.22;;
11305;SDS011;5708;50.660;6.778;2022-11-11T03:38:41;13.35;;;5.97;;
11305;SDS011;5708;50.660;6.778;2022-11-11T03:41:07;15.23;;;5.05;;
11305;SDS011;5708;50.660;6.778;2022-11-11T03:43:33;10.07;;;5.03;;
11305;SDS011;5708;50.660;6.778;2022-11-11T03:46:00;13.82;;;6.03;;
11305;SDS011;5708;50.660;6.778;2022-11-11T03:48:28;12.32;;;4.88;;
11305;SDS011;5708;50.660;6.778;2022-11-11T03:50:54;11.63;;;4.95;;
11305;SDS011;5708;50.660;6.778;2022-11-11T03:53:20;14.68;;;5.20;;
11305;SDS011;5708;50.660;6.778;2022-11-11T03:55:46;9.23;;;5.00;;
11305;SDS011;5708;50.660;6.778;2022-11-11T03:58:12;11.93;;;5.25;;
11305;SDS011;5708;50.660;6.778;2022-11-11T04:00:37;10.52;;;5.32;;
11305;SDS011;5708;50.660;6.778;2022-11-11T04:03:04;11.38;;;5.18;;
11305;SDS011;5708;50.660;6.778;2022-11-11T04:05:47;10.35;;;4.90;;
11305;SDS011;5708;50.660;6.778;2022-11-11T04:08:31;9.82;;;5.20;;
11305;SDS011;5708;50.660;6.778;2022-11-11T04:11:18;13.00;;;4.93;;
11305;SDS011;5708;50.660;6.778;2022-11-11T04:13:47;10.85;;;4.80;;
11305;SDS011;5708;50.660;6.778;2022-11-11T04:16:32;8.80;;;4.53;;
11305;SDS011;5708;50.660;6.778;2022-11-11T04:18:57;9.63;;;4.55;;
11305;SDS011;5708;50.660;6.778;2022-11-11T04:21:41;9.23;;;4.55;;
11305;SDS011;5708;50.660;6.778;2022-11-11T04:24:10;11.00;;;4.68;;
11305;SDS011;5708;50.660;6.778;2022-11-11T04:26:58;10.32;;;4.53;;
11305;SDS011;5708;50.660;6.778;2022-11-11T04:29:25;12.90;;;4.68;;
11305;SDS011;5708;50.660;6.778;2022-11-11T04:31:58;12.35;;;4.55;;
11305;SDS011;5708;50.660;6.778;2022-11-11T04:34:50;8.57;;;4.93;;
11305;SDS011;5708;50.660;6.778;2022-11-11T04:37:18;9.48;;;4.50;;
11305;SDS011;5708;50.660;6.778;2022-11-11T04:39:44;10.30;;;5.00;;
11305;SDS011;5708;50.660;6.778;2022-11-11T04:42:28;8.98;;;4.65;;
11305;SDS011;5708;50.660;6.778;2022-11-11T04:44:54;9.48;;;4.30;;
11305;SDS011;5708;50.660;6.778;2022-11-11T04:47:51;10.18;;;4.38;;
11305;SDS011;5708;50.660;6.778;2022-11-11T04:50:20;8.95;;;4.10;;
11305;SDS011;5708;50.660;6.778;2022-11-11T04:52:45;12.25;;;4.72;;
11305;SDS011;5708;50.660;6.778;2022-11-11T04:55:11;11.88;;;4.57;;
11305;SDS011;5708;50.660;6.778;2022-11-11T04:57:55;8.07;;;4.60;;
11305;SDS011;5708;50.660;6.778;2022-11-11T05:00:20;12.50;;;4.85;;
11305;SDS011;5708;50.660;6.778;2022-11-11T05:02:45;11.20;;;4.80;;
11305;SDS011;5708;50.660;6.778;2022-11-11T05:05:29;10.93;;;4.72;;
11305;SDS011;5708;50.660;6.778;2022-11-11T05:08:34;14.20;;;4.80;;
11305;SDS011;5708;50.660;6.778;2022-11-11T05:11:19;12.95;;;5.38;;
11305;SDS011;5708;50.660;6.778;2022-11-11T05:13:49;10.27;;;5.18;;
11305;SDS011;5708;50.660;6.778;2022-11-11T05:16:36;14.85;;;5.57;;
11305;SDS011;5708;50.660;6.778;2022-11-11T05:19:27;9.60;;;5.32;;
11305;SDS011;5708;50.660;6.778;2022-11-11T05:22:18;13.77;;;5.22;;
11305;SDS011;5708;50.660;6.778;2022-11-11T05:24:58;12.85;;;5.90;;
11305;SDS011;5708;50.660;6.778;2022-11-11T05:27:42;13.77;;;6.53;;
11305;SDS011;5708;50.660;6.778;2022-11-11T05:30:09;14.30;;;6.35;;
11305;SDS011;5708;50.660;6.778;2022-11-11T05:32:35;14.73;;;6.80;;
11305;SDS011;5708;50.660;6.778;2022-11-11T05:35:01;15.52;;;6.80;;
11305;SDS011;5708;50.660;6.778;2022-11-11T05:37:27;12.20;;;6.30;;
11305;SDS011;5708;50.660;6.778;2022-11-11T05:39:53;12.88;;;6.93;;
11305;SDS011;5708;50.660;6.778;2022-11-11T05:42:18;11.65;;;6.78;;
11305;SDS011;5708;50.660;6.778;2022-11-11T05:44:43;12.85;;;6.63;;
11305;SDS011;5708;50.660;6.778;2022-11-11T05:47:09;12.05;;;6.22;;
11305;SDS011;5708;50.660;6.778;2022-11-11T05:49:34;14.02;;;6.30;;
11305;SDS011;5708;50.660;6.778;2022-11-11T05:52:00;14.13;;;6.47;;
11305;SDS011;5708;50.660;6.778;2022-11-11T05:54:25;13.48;;;6.45;;
11305;SDS011;5708;50.660;6.778;2022-11-11T05:56:51;14.02;;;6.30;;
11305;SDS011;5708;50.660;6.778;2022-11-11T05:59:16;13.65;;;6.15;;
11305;SDS011;5708;50.660;6.778;2022-11-11T06:01:41;11.63;;;5.75;;
11305;SDS011;5708;50.660;6.778;2022-11-11T06:04:07;13.55;;;5.97;;
11305;SDS011;5708;50.660;6.778;2022-11-11T06:06:33;11.82;;;5.80;;
11305;SDS011;5708;50.660;6.778;2022-11-11T06:08:58;14.18;;;5.57;;
11305;SDS011;5708;50.660;6.778;2022-11-11T06:11:25;11.80;;;5.85;;
11305;SDS011;5708;50.660;6.778;2022-11-11T06:13:51;11.95;;;5.53;;
11305;SDS011;5708;50.660;6.778;2022-11-11T06:16:17;10.05;;;5.68;;
11305;SDS011;5708;50.660;6.778;2022-11-11T06:18:42;11.30;;;5.68;;
11305;SDS011;5708;50.660;6.778;2022-11-11T06:21:07;11.30;;;5.05;;
11305;SDS011;5708;50.660;6.778;2022-11-11T06:23:33;8.63;;;4.97;;
11305;SDS011;5708;50.660;6.778;2022-11-11T06:25:58;12.02;;;5.05;;
11305;SDS011;5708;50.660;6.778;2022-11-11T06:28:43;12.43;;;5.32;;
11305;SDS011;5708;50.660;6.778;2022-11-11T06:31:14;9.88;;;4.78;;
11305;SDS011;5708;50.660;6.778;2022-11-11T06:33:44;10.23;;;4.65;;
11305;SDS011;5708;50.660;6.778;2022-11-11T06:36:10;10.68;;;5.00;;
11305;SDS011;5708;50.660;6.778;2022-11-11T06:38:37;10.32;;;5.10;;
11305;SDS011;5708;50.660;6.778;2022-11-11T06:41:03;9.57;;;5.03;;
11305;SDS011;5708;50.660;6.778;2022-11-11T06:43:28;8.80;;;5.28;;
11305;SDS011;5708;50.660;6.778;2022-11-11T06:45:54;9.55;;;4.78;;
11305;SDS011;5708;50.660;6.778;2022-11-11T06:48:20;9.75;;;5.38;;
11305;SDS011;5708;50.660;6.778;2022-11-11T06:50:46;9.73;;;5.22;;
11305;SDS011;5708;50.660;6.778;2022-11-11T06:53:12;9.85;;;5.80;;
11305;SDS011;5708;50.660;6.778;2022-11-11T06:55:39;11.38;;;6.07;;
11305;SDS011;5708;50.660;6.778;2022-11-11T07:00:31;11.27;;;6.07;;
11305;SDS011;5708;50.660;6.778;2022-11-11T07:02:56;9.98;;;5.57;;
11305;SDS011;5708;50.660;6.778;2022-11-11T07:05:22;11.27;;;5.47;;
11305;SDS011;5708;50.660;6.778;2022-11-11T07:07:47;11.48;;;5.50;;
11305;SDS011;5708;50.660;6.778;2022-11-11T07:10:12;10.88;;;5.93;;
11305;SDS011;5708;50.660;6.778;2022-11-11T07:12:39;10.32;;;5.57;;
11305;SDS011;5708;50.660;6.778;2022-11-11T07:15:05;11.75;;;5.30;;
11305;SDS011;5708;50.660;6.778;2022-11-11T07:17:31;10.88;;;5.38;;
11305;SDS011;5708;50.660;6.778;2022-11-11T07:19:56;10.93;;;5.15;;
11305;SDS011;5708;50.660;6.778;2022-11-11T07:22:21;10.55;;;5.53;;
11305;SDS011;5708;50.660;6.778;2022-11-11T07:24:47;11.20;;;5.28;;
11305;SDS011;5708;50.660;6.778;2022-11-11T07:27:12;9.35;;;4.85;;
11305;SDS011;5708;50.660;6.778;2022-11-11T07:29:37;10.70;;;5.50;;
11305;SDS011;5708;50.660;6.778;2022-11-11T07:32:03;12.63;;;5.68;;
11305;SDS011;5708;50.660;6.778;2022-11-11T07:34:28;11.50;;;5.28;;
11305;SDS011;5708;50.660;6.778;2022-11-11T07:36:53;9.23;;;5.50;;
11305;SDS011;5708;50.660;6.778;2022-11-11T07:39:19;9.50;;;5.43;;
11305;SDS011;5708;50.660;6.778;2022-11-11T07:41:44;10.57;;;5.00;;
11305;SDS011;5708;50.660;6.778;2022-11-11T07:44:10;10.95;;;4.80;;
11305;SDS011;5708;50.660;6.778;2022-11-11T07:46:35;9.52;;;4.80;;
11305;SDS011;5708;50.660;6.778;2022-11-11T07:49:00;11.52;;;5.45;;
11305;SDS011;5708;50.660;6.778;2022-11-11T07:51:25;9.82;;;4.70;;
11305;SDS011;5708;50.660;6.778;2022-11-11T07:53:51;8.00;;;4.28;;
11305;SDS011;5708;50.660;6.778;2022-11-11T07:56:16;9.82;;;4.85;;
11305;SDS011;5708;50.660;6.778;2022-11-11T07:58:41;8.93;;;4.25;;
11305;SDS011;5708;50.660;6.778;2022-11-11T08:01:07;7.32;;;4.25;;
11305;SDS011;5708;50.660;6.778;2022-11-11T08:03:32;8.95;;;4.13;;
11305;SDS011;5708;50.660;6.778;2022-11-11T08:05:57;9.13;;;4.13;;
11305;SDS011;5708;50.660;6.778;2022-11-11T08:08:22;7.07;;;3.80;;
11305;SDS011;5708;50.660;6.778;2022-11-11T08:10:53;7.35;;;3.67;;
11305;SDS011;5708;50.660;6.778;2022-11-11T08:13:19;7.45;;;4.00;;
11305;SDS011;5708;50.660;6.778;2022-11-11T08:16:03;7.75;;;3.60;;
11305;SDS011;5708;50.660;6.778;2022-11-11T08:18:30;8.98;;;3.85;;
11305;SDS011;5708;50.660;6.778;2022-11-11T08:20:56;8.00;;;3.80;;
11305;SDS011;5708;50.660;6.778;2022-11-11T08:23:22;9.52;;;4.72;;
11305;SDS011;5708;50.660;6.778;2022-11-11T08:25:56;9.73;;;5.20;;
11305;SDS011;5708;50.660;6.778;2022-11-11T08:28:22;15.55;;;4.93;;
11305;SDS011;5708;50.660;6.778;2022-11-11T08:30:47;11.45;;;4.85;;
11305;SDS011;5708;50.660;6.778;2022-11-11T08:33:12;13.00;;;6.07;;
11305;SDS011;5708;50.660;6.778;2022-11-11T08:35:38;10.50;;;6.03;;
11305;SDS011;5708;50.660;6.778;2022-11-11T08:38:03;16.83;;;8.32;;
11305;SDS011;5708;50.660;6.778;2022-11-11T08:40:29;18.80;;;8.70;;
11305;SDS011;5708;50.660;6.778;2022-11-11T08:42:57;12.43;;;7.55;;
11305;SDS011;5708;50.660;6.778;2022-11-11T08:45:23;16.00;;;7.35;;
11305;SDS011;5708;50.660;6.778;2022-11-11T08:47:51;13.70;;;7.30;;
11305;SDS011;5708;50.660;6.778;2022-11-11T08:50:17;14.95;;;6.82;;
11305;SDS011;5708;50.660;6.778;2022-11-11T08:52:46;13.40;;;6.95;;
11305;SDS011;5708;50.660;6.778;2022-11-11T08:55:12;13.25;;;7.68;;
11305;SDS011;5708;50.660;6.778;2022-11-11T08:57:38;13.70;;;7.03;;
11305;SDS011;5708;50.660;6.778;2022-11-11T09:00:03;15.70;;;7.93;;
11305;SDS011;5708;50.660;6.778;2022-11-11T09:02:29;15.68;;;7.80;;
11305;SDS011;5708;50.660;6.778;2022-11-11T09:04:54;14.13;;;7.43;;
11305;SDS011;5708;50.660;6.778;2022-11-11T09:07:20;12.93;;;6.88;;
11305;SDS011;5708;50.660;6.778;2022-11-11T09:09:45;12.90;;;6.95;;
11305;SDS011;5708;50.660;6.778;2022-11-11T09:12:10;13.27;;;6.85;;
11305;SDS011;5708;50.660;6.778;2022-11-11T09:14:35;15.25;;;7.50;;
11305;SDS011;5708;50.660;6.778;2022-11-11T09:17:01;13.68;;;7.22;;
11305;SDS011;5708;50.660;6.778;2022-11-11T09:19:26;12.38;;;7.10;;
11305;SDS011;5708;50.660;6.778;2022-11-11T09:21:51;13.38;;;7.40;;
11305;SDS011;5708;50.660;6.778;2022-11-11T09:24:17;12.20;;;7.18;;
11305;SDS011;5708;50.660;6.778;2022-11-11T09:26:42;14.48;;;6.78;;
11305;SDS011;5708;50.660;6.778;2022-11-11T09:29:08;12.85;;;5.90;;
11305;SDS011;5708;50.660;6.778;2022-11-11T09:31:33;10.30;;;5.50;;
11305;SDS011;5708;50.660;6.778;2022-11-11T09:33:58;11.48;;;5.55;;
11305;SDS011;5708;50.660;6.778;2022-11-11T09:36:24;12.55;;;5.15;;
11305;SDS011;5708;50.660;6.778;2022-11-11T09:38:50;10.40;;;5.13;;
11305;SDS011;5708;50.660;6.778;2022-11-11T09:41:19;11.35;;;5.65;;
11305;SDS011;5708;50.660;6.778;2022-11-11T09:44:01;9.48;;;4.70;;
11305;SDS011;5708;50.660;6.778;2022-11-11T09:46:38;11.73;;;5.40;;
11305;SDS011;5708;50.660;6.778;2022-11-11T09:49:33;11.73;;;5.70;;
11305;SDS011;5708;50.660;6.778;2022-11-11T09:52:13;14.23;;;5.72;;
11305;SDS011;5708;50.660;6.778;2022-11-11T09:54:51;16.00;;;6.25;;
11305;SDS011;5708;50.660;6.778;2022-11-11T09:57:28;10.38;;;5.25;;
11305;SDS011;5708;50.660;6.778;2022-11-11T09:59:59;10.88;;;5.25;;
11305;SDS011;5708;50.660;6.778;2022-11-11T10:05:16;7.90;;;4.57;;
11305;SDS011;5708;50.660;6.778;2022-11-11T10:07:51;10.68;;;5.20;;
11305;SDS011;5708;50.660;6.778;2022-11-11T10:10:26;12.20;;;5.53;;
11305;SDS011;5708;50.660;6.778;2022-11-11T10:12:58;15.10;;;5.43;;
11305;SDS011;5708;50.660;6.778;2022-11-11T10:15:25;11.48;;;5.35;;
11305;SDS011;5708;50.660;6.778;2022-11-11T10:18:37;11.88;;;4.85;;
11305;SDS011;5708;50.660;6.778;2022-11-11T10:20:53;15.77;;;4.68;;
11305;SDS011;5708;50.660;6.778;2022-11-11T10:23:29;18.13;;;6.28;;
11305;SDS011;5708;50.660;6.778;2022-11-11T10:25:58;14.55;;;5.90;;
11305;SDS011;5708;50.660;6.778;2022-11-11T10:28:27;18.52;;;6.70;;
11305;SDS011;5708;50.660;6.778;2022-11-11T10:30:55;14.63;;;7.38;;
11305;SDS011;5708;50.660;6.778;2022-11-11T10:33:28;14.90;;;5.97;;
11305;SDS011;5708;50.660;6.778;2022-11-11T10:35:58;13.02;;;5.72;;
11305;SDS011;5708;50.660;6.778;2022-11-11T10:43:44;9.82;;;4.00;;
11305;SDS011;5708;50.660;6.778;2022-11-11T10:46:15;9.93;;;4.72;;
11305;SDS011;5708;50.660;6.778;2022-11-11T10:48:59;9.00;;;4.00;;
11305;SDS011;5708;50.660;6.778;2022-11-11T10:51:36;7.90;;;3.97;;
11305;SDS011;5708;50.660;6.778;2022-11-11T10:54:09;7.88;;;3.75;;
11305;SDS011;5708;50.660;6.778;2022-11-11T10:56:47;8.23;;;3.90;;
11305;SDS011;5708;50.660;6.778;2022-11-11T10:59:17;9.80;;;3.90;;
11305;SDS011;5708;50.660;6.778;2022-11-11T11:01:48;7.63;;;3.60;;
11305;SDS011;5708;50.660;6.778;2022-11-11T11:04:39;5.45;;;2.90;;
11305;SDS011;5708;50.660;6.778;2022-11-11T11:07:08;10.23;;;3.00;;
11305;SDS011;5708;50.660;6.778;2022-11-11T11:09:42;8.00;;;3.20;;
11305;SDS011;5708;50.660;6.778;2022-11-11T11:12:13;6.70;;;2.90;;
11305;SDS011;5708;50.660;6.778;2022-11-11T11:14:46;6.55;;;2.83;;
11305;SDS011;5708;50.660;6.778;2022-11-11T11:17:14;7.72;;;2.92;;
11305;SDS011;5708;50.660;6.778;2022-11-11T11:19:44;6.15;;;3.15;;
11305;SDS011;5708;50.660;6.778;2022-11-11T11:22:09;5.30;;;3.10;;
11305;SDS011;5708;50.660;6.778;2022-11-11T11:24:35;6.55;;;2.88;;
11305;SDS011;5708;50.660;6.778;2022-11-11T11:27:02;7.72;;;2.80;;
11305;SDS011;5708;50.660;6.778;2022-11-11T11:29:30;9.82;;;2.80;;
11305;SDS011;5708;50.660;6.778;2022-11-11T11:32:15;9.80;;;2.65;;
11305;SDS011;5708;50.660;6.778;2022-11-11T11:34:42;4.90;;;2.38;;
11305;SDS011;5708;50.660;6.778;2022-11-11T11:37:14;7.10;;;2.38;;
11305;SDS011;5708;50.660;6.778;2022-11-11T11:39:40;9.20;;;3.30;;
11305;SDS011;5708;50.660;6.778;2022-11-11T11:42:05;6.72;;;2.80;;
11305;SDS011;5708;50.660;6.778;2022-11-11T11:44:36;8.75;;;2.83;;
11305;SDS011;5708;50.660;6.778;2022-11-11T11:47:05;4.78;;;2.30;;
11305;SDS011;5708;50.660;6.778;2022-11-11T11:49:41;10.43;;;2.55;;
11305;SDS011;5708;50.660;6.778;2022-11-11T11:52:43;5.60;;;2.40;;
11305;SDS011;5708;50.660;6.778;2022-11-11T11:55:15;7.70;;;2.40;;
11305;SDS011;5708;50.660;6.778;2022-11-11T12:05:49;6.25;;;2.70;;
11305;SDS011;5708;50.660;6.778;2022-11-11T12:08:32;5.43;;;2.05;;
11305;SDS011;5708;50.660;6.778;2022-11-11T12:24:44;9.43;;;3.15;;
11305;SDS011;5708;50.660;6.778;2022-11-11T12:27:41;7.75;;;3.28;;
11305;SDS011;5708;50.660;6.778;2022-11-11T12:30:27;6.60;;;2.58;;
11305;SDS011;5708;50.660;6.778;2022-11-11T12:33:01;4.43;;;1.98;;
11305;SDS011;5708;50.660;6.778;2022-11-11T12:41:24;5.43;;;1.90;;
11305;SDS011;5708;50.660;6.778;2022-11-11T12:44:06;7.05;;;1.95;;
11305;SDS011;5708;50.660;6.778;2022-11-11T12:49:29;6.65;;;2.00;;
11305;SDS011;5708;50.660;6.778;2022-11-11T13:00:26;6.20;;;2.08;;
11305;SDS011;5708;50.660;6.778;2022-11-11T13:16:07;6.88;;;2.22;;
11305;SDS011;5708;50.660;6.778;2022-11-11T13:21:43;9.68;;;2.40;;
11305;SDS011;5708;50.660;6.778;2022-11-11T13:24:13;5.53;;;2.10;;
11305;SDS011;5708;50.660;6.778;2022-11-11T13:26:44;7.13;;;2.00;;
11305;SDS011;5708;50.660;6.778;2022-11-11T13:32:02;7.30;;;2.50;;
11305;SDS011;5708;50.660;6.778;2022-11-11T13:34:30;10.05;;;2.67;;
11305;SDS011;5708;50.660;6.778;2022-11-11T13:36:58;8.88;;;2.60;;
11305;SDS011;5708;50.660;6.778;2022-11-11T13:39:27;10.20;;;2.80;;
11305;SDS011;5708;50.660;6.778;2022-11-11T13:41:55;7.55;;;2.40;;
11305;SDS011;5708;50.660;6.778;2022-11-11T13:45:12;5.93;;;2.10;;
11305;SDS011;5708;50.660;6.778;2022-11-11T13:47:33;6.13;;;1.77;;
11305;SDS011;5708;50.660;6.778;2022-11-11T13:50:25;8.55;;;2.22;;
11305;SDS011;5708;50.660;6.778;2022-11-11T13:53:11;6.88;;;2.08;;
11305;SDS011;5708;50.660;6.778;2022-11-11T13:55:40;6.85;;;1.92;;
11305;SDS011;5708;50.660;6.778;2022-11-11T13:58:19;5.03;;;1.80;;
11305;SDS011;5708;50.660;6.778;2022-11-11T14:00:47;4.85;;;1.98;;
11305;SDS011;5708;50.660;6.778;2022-11-11T14:05:49;5.38;;;1.58;;
11305;SDS011;5708;50.660;6.778;2022-11-11T14:13:49;7.68;;;1.90;;
11305;SDS011;5708;50.660;6.778;2022-11-11T14:19:44;5.75;;;2.00;;
11305;SDS011;5708;50.660;6.778;2022-11-11T14:29:36;6.75;;;2.80;;
11305;SDS011;5708;50.660;6.778;2022-11-11T14:34:51;10.70;;;2.67;;
11305;SDS011;5708;50.660;6.778;2022-11-11T14:40:00;7.32;;;2.33;;
11305;SDS011;5708;50.660;6.778;2022-11-11T14:45:04;6.57;;;2.50;;
11305;SDS011;5708;50.660;6.778;2022-11-11T14:47:50;9.18;;;2.78;;
11305;SDS011;5708;50.660;6.778;2022-11-11T14:52:58;5.32;;;2.40;;
11305;SDS011;5708;50.660;6.778;2022-11-11T14:55:25;7.40;;;2.53;;
11305;SDS011;5708;50.660;6.778;2022-11-11T14:58:00;7.10;;;2.17;;
11305;SDS011;5708;50.660;6.778;2022-11-11T15:00:33;6.13;;;2.17;;
11305;SDS011;5708;50.660;6.778;2022-11-11T15:14:18;5.43;;;2.33;;
11305;SDS011;5708;50.660;6.778;2022-11-11T15:25:32;30.48;;;4.13;;
11305;SDS011;5708;50.660;6.778;2022-11-11T15:31:01;6.68;;;2.45;;
11305;SDS011;5708;50.660;6.778;2022-11-11T15:36:42;13.23;;;2.70;;
11305;SDS011;5708;50.660;6.778;2022-11-11T15:39:23;6.35;;;2.55;;
11305;SDS011;5708;50.660;6.778;2022-11-11T15:41:51;8.80;;;2.92;;
11305;SDS011;5708;50.660;6.778;2022-11-11T15:46:43;8.50;;;3.17;;
11305;SDS011;5708;50.660;6.778;2022-11-11T15:52:03;12.75;;;5.78;;
11305;SDS011;5708;50.660;6.778;2022-11-11T15:54:46;8.73;;;4.55;;
11305;SDS011;5708;50.660;6.778;2022-11-11T15:57:25;10.05;;;4.30;;
11305;SDS011;5708;50.660;6.778;2022-11-11T15:59:58;6.82;;;2.85;;
11305;SDS011;5708;50.660;6.778;2022-11-11T16:02:26;5.45;;;2.95;;
11305;SDS011;5708;50.660;6.778;2022-11-11T16:05:00;5.70;;;2.42;;
11305;SDS011;5708;50.660;6.778;2022-11-11T16:07:30;7.35;;;4.60;;
11305;SDS011;5708;50.660;6.778;2022-11-11T16:10:04;5.53;;;3.58;;
11305;SDS011;5708;50.660;6.778;2022-11-11T16:12:36;7.43;;;3.15;;
11305;SDS011;5708;50.660;6.778;2022-11-11T16:15:09;4.45;;;2.50;;
11305;SDS011;5708;50.660;6.778;2022-11-11T16:17:40;5.35;;;2.30;;
11305;SDS011;5708;50.660;6.778;2022-11-11T16:20:11;5.35;;;1.90;;
11305;SDS011;5708;50.660;6.778;2022-11-11T16:22:38;6.75;;;1.70;;
11305;SDS011;5708;50.660;6.778;2022-11-11T16:25:04;3.80;;;1.58;;
11305;SDS011;5708;50.660;6.778;2022-11-11T16:27:35;3.50;;;1.42;;
11305;SDS011;5708;50.660;6.778;2022-11-11T16:32:54;3.08;;;1.40;;
11305;SDS011;5708;50.660;6.778;2022-11-11T16:35:22;2.10;;;1.13;;
11305;SDS011;5708;50.660;6.778;2022-11-11T16:37:49;2.58;;;1.40;;
11305;SDS011;5708;50.660;6.778;2022-11-11T16:48:38;3.40;;;1.83;;
11305;SDS011;5708;50.660;6.778;2022-11-11T16:51:07;4.35;;;1.60;;
11305;SDS011;5708;50.660;6.778;2022-11-11T16:53:49;3.15;;;1.52;;
11305;SDS011;5708;50.660;6.778;2022-11-11T16:56:22;3.88;;;1.80;;
11305;SDS011;5708;50.660;6.778;2022-11-11T16:59:01;5.90;;;2.30;;
11305;SDS011;5708;50.660;6.778;2022-11-11T17:01:29;4.40;;;1.80;;
11305;SDS011;5708;50.660;6.778;2022-11-11T17:03:55;6.43;;;2.28;;
11305;SDS011;5708;50.660;6.778;2022-11-11T17:12:04;3.67;;;1.83;;
11305;SDS011;5708;50.660;6.778;2022-11-11T17:14:31;5.22;;;1.80;;
11305;SDS011;5708;50.660;6.778;2022-11-11T17:16:58;4.53;;;1.60;;
11305;SDS011;5708;50.660;6.778;2022-11-11T17:19:23;4.10;;;1.90;;
11305;SDS011;5708;50.660;6.778;2022-11-11T17:21:49;3.55;;;1.70;;
11305;SDS011;5708;50.660;6.778;2022-11-11T17:24:14;3.70;;;1.67;;
11305;SDS011;5708;50.660;6.778;2022-11-11T17:26:40;4.95;;;2.00;;
11305;SDS011;5708;50.660;6.778;2022-11-11T17:29:05;6.47;;;2.67;;
11305;SDS011;5708;50.660;6.778;2022-11-11T17:31:31;7.65;;;3.20;;
11305;SDS011;5708;50.660;6.778;2022-11-11T17:33:57;6.80;;;3.30;;
11305;SDS011;5708;50.660;6.778;2022-11-11T17:36:23;10.38;;;2.50;;
11305;SDS011;5708;50.660;6.778;2022-11-11T17:38:48;7.22;;;2.90;;
11305;SDS011;5708;50.660;6.778;2022-11-11T17:41:14;6.68;;;2.80;;
11305;SDS011;5708;50.660;6.778;2022-11-11T17:43:39;8.25;;;3.65;;